createdAt,value
2023-05-10T00:00:19.311Z,4.95
2023-05-10T00:01:21.074Z,4.53
2023-05-10T00:02:22.622Z,4.03
2023-05-10T00:03:24.893Z,3.92
2023-05-10T00:04:28.459Z,3.95
2023-05-10T00:05:30.029Z,3.60
2023-05-10T00:06:31.519Z,3.83
2023-05-10T00:07:33.046Z,4.13
2023-05-10T00:08:34.844Z,4.20
2023-05-10T00:09:36.300Z,3.85
2023-05-10T00:10:38.475Z,4.38
2023-05-10T00:11:40.053Z,4.22
2023-05-10T00:12:41.633Z,3.72
2023-05-10T00:13:43.378Z,3.75
2023-05-10T00:14:44.933Z,4.75
2023-05-10T00:15:46.419Z,4.20
2023-05-10T00:16:47.947Z,4.15
2023-05-10T00:17:49.452Z,4.32
2023-05-10T00:18:51.454Z,3.72
2023-05-10T00:19:52.915Z,4.28
2023-05-10T00:20:54.403Z,4.30
2023-05-10T00:21:55.934Z,4.20
2023-05-10T00:22:57.463Z,4.60
2023-05-10T00:23:59.210Z,3.88
2023-05-10T00:25:00.813Z,4.05
2023-05-10T00:26:02.899Z,4.32
2023-05-10T00:27:05.026Z,4.60
2023-05-10T00:28:06.530Z,4.50
2023-05-10T00:29:08.389Z,4.43
2023-05-10T00:30:10.314Z,4.45
2023-05-10T00:31:11.823Z,4.40
2023-05-10T00:32:14.986Z,4.07
2023-05-10T00:33:16.772Z,4.35
2023-05-10T00:34:18.234Z,4.70
2023-05-10T00:35:19.869Z,4.45
2023-05-10T00:36:22.165Z,4.43
2023-05-10T00:37:23.608Z,4.78
2023-05-10T00:38:25.840Z,4.10
2023-05-10T00:39:29.795Z,4.30
2023-05-10T00:40:31.631Z,4.30
2023-05-10T00:41:33.722Z,4.57
2023-05-10T00:42:35.300Z,4.50
2023-05-10T00:43:37.118Z,4.50
2023-05-10T00:44:38.703Z,4.60
2023-05-10T00:45:41.399Z,4.93
2023-05-10T00:46:42.970Z,4.70
2023-05-10T00:47:44.627Z,4.82
2023-05-10T00:48:46.745Z,4.72
2023-05-10T00:49:48.465Z,4.68
2023-05-10T00:50:50.397Z,4.60
2023-05-10T00:51:52.139Z,4.97
2023-05-10T00:52:53.946Z,4.53
2023-05-10T00:53:57.040Z,4.55
2023-05-10T00:54:58.625Z,4.82
2023-05-10T00:56:00.657Z,4.72
2023-05-10T00:57:02.322Z,4.72
2023-05-10T00:58:04.435Z,4.57
2023-05-10T00:59:05.969Z,4.95
2023-05-10T01:00:08.648Z,5.05
2023-05-10T01:01:10.794Z,5.60
2023-05-10T01:02:14.151Z,4.72
2023-05-10T01:03:15.784Z,4.57
2023-05-10T01:04:17.427Z,5.15
2023-05-10T01:05:19.130Z,4.93
2023-05-10T01:06:20.700Z,4.80
2023-05-10T01:07:22.185Z,4.90
2023-05-10T01:08:23.752Z,5.05
2023-05-10T01:09:27.354Z,4.75
2023-05-10T01:10:29.213Z,5.05
2023-05-10T01:11:31.065Z,5.00
2023-05-10T01:12:33.051Z,5.20
2023-05-10T01:13:40.486Z,5.00
2023-05-10T01:14:42.343Z,5.40
2023-05-10T01:15:43.968Z,4.93
2023-05-10T01:16:46.832Z,5.70
2023-05-10T01:17:50.068Z,4.80
2023-05-10T01:18:52.535Z,5.45
2023-05-10T01:19:54.090Z,5.25
2023-05-10T01:21:24.775Z,5.20
2023-05-10T01:22:47.708Z,5.15
2023-05-10T01:24:14.282Z,5.22
2023-05-10T01:25:34.405Z,5.32
2023-05-10T01:26:36.126Z,5.85
2023-05-10T01:28:02.754Z,5.75
2023-05-10T01:29:19.950Z,5.40
2023-05-10T01:30:49.312Z,5.32
2023-05-10T01:32:12.904Z,5.63
2023-05-10T01:33:27.756Z,5.28
2023-05-10T01:34:39.138Z,5.85
2023-05-10T01:36:13.967Z,5.68
2023-05-10T01:37:26.249Z,5.50
2023-05-10T01:38:30.347Z,5.50
2023-05-10T01:39:48.433Z,5.53
2023-05-10T01:41:08.162Z,5.80
2023-05-10T01:42:17.025Z,5.22
2023-05-10T01:43:29.069Z,5.22
2023-05-10T01:44:37.240Z,5.78
2023-05-10T01:45:48.397Z,5.70
2023-05-10T01:47:01.577Z,5.65
2023-05-10T01:48:08.338Z,5.78
2023-05-10T01:49:16.921Z,5.72
2023-05-10T01:50:24.826Z,5.80
2023-05-10T01:51:39.691Z,5.90
2023-05-10T01:52:45.737Z,5.07
2023-05-10T01:53:49.784Z,5.47
2023-05-10T01:54:56.918Z,5.70
2023-05-10T01:56:00.149Z,5.82
2023-05-10T01:57:06.546Z,5.75
2023-05-10T01:58:11.575Z,6.47
2023-05-10T01:59:18.061Z,6.13
2023-05-10T02:00:21.188Z,6.03
2023-05-10T02:01:23.616Z,6.22
2023-05-10T02:02:27.120Z,6.30
2023-05-10T02:03:30.794Z,6.38
2023-05-10T02:04:34.259Z,6.32
2023-05-10T02:05:37.697Z,6.10
2023-05-10T02:06:41.228Z,6.07
2023-05-10T02:07:43.835Z,5.78
2023-05-10T02:08:47.698Z,6.32
2023-05-10T02:09:49.367Z,6.00
2023-05-10T02:10:56.598Z,5.90
2023-05-10T02:12:00.880Z,5.80
2023-05-10T02:13:04.441Z,6.10
2023-05-10T02:14:10.400Z,6.30
2023-05-10T02:15:14.127Z,6.32
2023-05-10T02:16:18.597Z,6.45
2023-05-10T02:17:21.229Z,6.10
2023-05-10T02:18:24.956Z,5.78
2023-05-10T02:19:29.691Z,6.80
2023-05-10T02:20:33.515Z,5.90
2023-05-10T02:21:36.264Z,5.97
2023-05-10T02:22:39.777Z,5.88
2023-05-10T02:23:41.907Z,6.35
2023-05-10T02:24:46.046Z,5.88
2023-05-10T02:25:50.512Z,6.40
2023-05-10T02:26:56.787Z,6.15
2023-05-10T02:28:00.943Z,5.88
2023-05-10T02:29:05.581Z,7.05
2023-05-10T02:30:08.604Z,5.93
2023-05-10T02:31:11.551Z,6.13
2023-05-10T02:32:13.839Z,5.80
2023-05-10T02:33:16.159Z,6.20
2023-05-10T02:34:18.015Z,6.10
2023-05-10T02:35:20.282Z,6.55
2023-05-10T02:36:23.598Z,6.47
2023-05-10T02:37:26.468Z,6.22
2023-05-10T02:39:32.688Z,6.10
2023-05-10T02:40:36.584Z,6.00
2023-05-10T02:41:39.303Z,6.43
2023-05-10T02:42:43.257Z,5.90
2023-05-10T02:43:46.781Z,5.82
2023-05-10T02:44:50.405Z,5.97
2023-05-10T02:46:12.518Z,6.15
2023-05-10T02:47:14.102Z,6.20
2023-05-10T02:48:16.703Z,6.47
2023-05-10T02:49:19.401Z,6.05
2023-05-10T02:50:22.180Z,6.20
2023-05-10T02:51:29.287Z,5.82
2023-05-10T02:52:40.274Z,5.82
2023-05-10T02:53:45.574Z,5.13
2023-05-10T02:54:51.745Z,5.28
2023-05-10T02:55:58.043Z,4.80
2023-05-10T02:57:01.617Z,5.20
2023-05-10T02:58:04.154Z,4.60
2023-05-10T02:59:06.029Z,4.60
2023-05-10T03:00:08.061Z,4.15
2023-05-10T03:01:09.921Z,3.35
2023-05-10T03:02:13.551Z,2.42
2023-05-10T03:03:15.031Z,2.00
2023-05-10T03:04:16.637Z,2.03
2023-05-10T03:05:18.209Z,2.20
2023-05-10T03:06:19.770Z,1.83
2023-05-10T03:07:22.334Z,1.80
2023-05-10T03:08:24.990Z,1.70
2023-05-10T03:09:26.786Z,1.60
2023-05-10T03:10:31.852Z,1.45
2023-05-10T03:11:41.477Z,1.90
2023-05-10T03:12:53.023Z,1.60
2023-05-10T03:14:30.917Z,1.80
2023-05-10T03:15:49.644Z,1.40
2023-05-10T03:17:01.367Z,1.67
2023-05-10T03:18:08.221Z,1.58
2023-05-10T03:19:27.428Z,1.50
2023-05-10T03:21:03.831Z,1.45
2023-05-10T03:22:13.559Z,1.30
2023-05-10T03:23:36.740Z,1.60
2023-05-10T03:24:41.277Z,1.30
2023-05-10T03:25:44.744Z,1.30
2023-05-10T03:26:46.710Z,1.23
2023-05-10T03:27:50.520Z,1.27
2023-05-10T03:28:53.768Z,1.20
2023-05-10T03:29:57.031Z,1.10
2023-05-10T03:30:59.896Z,1.10
2023-05-10T03:33:09.219Z,1.10
2023-05-10T03:34:11.201Z,1.10
2023-05-10T03:35:15.216Z,1.20
2023-05-10T03:36:17.193Z,1.10
2023-05-10T03:37:18.938Z,1.13
2023-05-10T03:38:20.474Z,1.00
2023-05-10T03:39:22.422Z,1.23
2023-05-10T03:40:24.904Z,1.15
2023-05-10T03:41:26.456Z,1.10
2023-05-10T03:42:27.948Z,1.00
2023-05-10T03:43:29.390Z,1.10
2023-05-10T03:44:30.946Z,1.05
2023-05-10T03:45:32.573Z,1.02
2023-05-10T03:46:34.196Z,1.25
2023-05-10T03:47:36.132Z,1.00
2023-05-10T03:48:38.117Z,1.30
2023-05-10T03:49:39.579Z,1.20
2023-05-10T03:50:41.212Z,1.08
2023-05-10T03:51:42.783Z,1.13
2023-05-10T03:52:44.592Z,1.30
2023-05-10T03:53:46.337Z,1.02
2023-05-10T03:54:47.853Z,1.20
2023-05-10T03:55:49.394Z,1.10
2023-05-10T03:56:52.806Z,1.10
2023-05-10T03:57:54.953Z,1.20
2023-05-10T03:58:56.880Z,1.10
2023-05-10T03:59:58.416Z,1.20
2023-05-10T04:01:00.583Z,1.10
2023-05-10T04:02:02.120Z,1.05
2023-05-10T04:03:03.996Z,1.10
2023-05-10T04:04:05.545Z,1.00
2023-05-10T04:05:07.365Z,1.10
2023-05-10T04:06:10.338Z,0.98
2023-05-10T04:07:11.836Z,1.05
2023-05-10T04:08:13.524Z,0.85
2023-05-10T04:09:14.990Z,0.90
2023-05-10T04:10:17.780Z,0.93
2023-05-10T04:11:19.474Z,0.90
2023-05-10T04:12:21.366Z,0.90
2023-05-10T04:13:23.624Z,1.10
2023-05-10T04:14:25.679Z,0.90
2023-05-10T04:15:27.174Z,1.00
2023-05-10T04:16:29.036Z,1.00
2023-05-10T04:17:30.489Z,0.82
2023-05-10T04:18:33.236Z,1.00
2023-05-10T04:19:34.878Z,0.90
2023-05-10T04:20:36.636Z,0.82
2023-05-10T04:21:38.321Z,0.98
2023-05-10T04:22:40.039Z,0.80
2023-05-10T04:23:42.025Z,0.80
2023-05-10T04:24:43.473Z,0.80
2023-05-10T04:25:45.018Z,0.80
2023-05-10T04:26:46.692Z,0.70
2023-05-10T04:27:48.241Z,0.90
2023-05-10T04:28:49.831Z,0.88
2023-05-10T04:29:51.712Z,0.80
2023-05-10T04:30:53.258Z,0.80
2023-05-10T04:31:56.287Z,0.80
2023-05-10T04:32:57.789Z,0.80
2023-05-10T04:33:59.282Z,0.90
2023-05-10T04:35:00.802Z,0.85
2023-05-10T04:36:05.418Z,0.80
2023-05-10T04:37:07.452Z,0.80
2023-05-10T04:38:09.127Z,0.82
2023-05-10T04:39:10.962Z,0.90
2023-05-10T04:40:12.847Z,1.00
2023-05-10T04:41:14.768Z,0.80
2023-05-10T04:42:16.452Z,0.93
2023-05-10T04:43:18.071Z,1.05
2023-05-10T04:44:19.597Z,0.90
2023-05-10T04:45:21.138Z,0.80
2023-05-10T04:46:22.718Z,0.70
2023-05-10T04:47:24.342Z,0.88
2023-05-10T04:48:26.303Z,0.82
2023-05-10T04:49:27.735Z,0.80
2023-05-10T04:50:29.298Z,0.85
2023-05-10T04:51:31.511Z,0.80
2023-05-10T04:52:33.230Z,0.80
2023-05-10T04:53:34.878Z,1.00
2023-05-10T04:54:36.348Z,0.90
2023-05-10T04:55:37.961Z,0.90
2023-05-10T04:56:39.485Z,0.90
2023-05-10T04:57:41.265Z,0.98
2023-05-10T04:58:42.696Z,0.80
2023-05-10T04:59:44.217Z,0.90
2023-05-10T05:00:45.847Z,1.00
2023-05-10T05:01:48.536Z,0.85
2023-05-10T05:02:50.610Z,0.90
2023-05-10T05:03:53.909Z,0.80
2023-05-10T05:04:58.801Z,0.93
2023-05-10T05:06:00.486Z,1.00
2023-05-10T05:07:02.053Z,1.00
2023-05-10T05:08:03.788Z,0.82
2023-05-10T05:09:05.316Z,1.00
2023-05-10T05:10:08.635Z,0.90
2023-05-10T05:11:10.092Z,1.10
2023-05-10T05:12:14.982Z,0.98
2023-05-10T05:13:16.987Z,1.00
2023-05-10T05:14:18.536Z,1.00
2023-05-10T05:15:20.027Z,0.93
2023-05-10T05:16:21.505Z,0.80
2023-05-10T05:17:23.279Z,0.80
2023-05-10T05:18:24.732Z,1.00
2023-05-10T05:19:26.295Z,0.93
2023-05-10T05:20:27.751Z,1.02
2023-05-10T05:21:29.868Z,1.10
2023-05-10T05:22:31.402Z,0.93
2023-05-10T05:23:33.702Z,1.10
2023-05-10T05:24:39.136Z,1.10
2023-05-10T05:25:40.656Z,1.00
2023-05-10T05:26:42.586Z,1.00
2023-05-10T05:27:44.057Z,0.85
2023-05-10T05:28:45.519Z,1.13
2023-05-10T05:29:47.221Z,1.15
2023-05-10T05:30:48.709Z,1.00
2023-05-10T05:31:50.245Z,1.10
2023-05-10T05:32:51.901Z,1.10
2023-05-10T05:33:53.515Z,1.00
2023-05-10T05:34:54.952Z,1.05
2023-05-10T05:35:56.490Z,1.00
2023-05-10T05:36:58.056Z,1.02
2023-05-10T05:37:59.576Z,1.20
2023-05-10T05:39:01.080Z,1.10
2023-05-10T05:40:02.782Z,1.10
2023-05-10T05:41:04.345Z,1.00
2023-05-10T05:42:06.263Z,1.00
2023-05-10T05:43:07.732Z,1.02
2023-05-10T05:44:09.272Z,1.20
2023-05-10T05:45:14.078Z,1.10
2023-05-10T05:46:16.087Z,1.00
2023-05-10T05:47:18.043Z,1.00
2023-05-10T05:48:19.705Z,0.90
2023-05-10T05:49:21.398Z,0.82
2023-05-10T05:50:22.896Z,1.20
2023-05-10T05:51:24.414Z,1.08
2023-05-10T05:52:26.203Z,1.35
2023-05-10T05:53:27.852Z,1.02
2023-05-10T05:54:29.658Z,1.20
2023-05-10T05:55:32.504Z,1.20
2023-05-10T05:57:35.641Z,1.20
2023-05-10T05:58:37.117Z,1.10
2023-05-10T05:59:42.857Z,1.20
2023-05-10T06:00:44.658Z,1.45
2023-05-10T06:01:46.364Z,1.20
2023-05-10T06:02:48.398Z,1.20
2023-05-10T06:03:51.872Z,1.30
2023-05-10T06:04:54.928Z,1.25
2023-05-10T06:05:56.498Z,1.30
2023-05-10T06:06:57.951Z,1.42
2023-05-10T06:08:01.398Z,1.17
2023-05-10T06:09:03.494Z,1.30
2023-05-10T06:10:05.718Z,1.33
2023-05-10T06:11:07.397Z,1.33
2023-05-10T06:12:08.955Z,1.40
2023-05-10T06:13:11.002Z,1.60
2023-05-10T06:14:14.803Z,1.30
2023-05-10T06:15:16.393Z,1.23
2023-05-10T06:16:18.780Z,1.50
2023-05-10T06:17:20.544Z,1.40
2023-05-10T06:18:21.979Z,1.40
2023-05-10T06:19:27.427Z,1.38
2023-05-10T06:20:29.057Z,1.40
2023-05-10T06:21:31.110Z,1.30
2023-05-10T06:22:32.913Z,1.50
2023-05-10T06:23:34.409Z,1.40
2023-05-10T06:24:35.978Z,1.30
2023-05-10T06:25:37.902Z,1.45
2023-05-10T06:26:42.694Z,1.27
2023-05-10T06:27:50.960Z,1.38
2023-05-10T06:28:56.739Z,1.50
2023-05-10T06:30:11.735Z,1.70
2023-05-10T06:31:14.625Z,3.85
2023-05-10T06:32:16.459Z,1.75
2023-05-10T06:33:18.056Z,1.60
2023-05-10T06:34:19.617Z,1.58
2023-05-10T06:35:21.336Z,1.73
2023-05-10T06:36:24.459Z,1.30
2023-05-10T06:37:29.095Z,1.30
2023-05-10T06:38:30.715Z,1.23
2023-05-10T06:39:32.433Z,1.38
2023-05-10T06:40:34.239Z,1.38
2023-05-10T06:41:35.672Z,1.42
2023-05-10T06:42:37.509Z,1.38
2023-05-10T06:43:42.178Z,1.42
2023-05-10T06:44:44.566Z,1.30
2023-05-10T06:45:46.277Z,1.40
2023-05-10T06:46:48.443Z,1.38
2023-05-10T06:47:51.379Z,1.40
2023-05-10T06:49:56.907Z,1.40
2023-05-10T06:50:58.549Z,1.20
2023-05-10T06:52:00.045Z,1.38
2023-05-10T06:53:02.779Z,1.30
2023-05-10T06:54:04.742Z,1.40
2023-05-10T06:55:06.761Z,1.55
2023-05-10T06:56:08.337Z,1.65
2023-05-10T06:57:23.188Z,1.70
2023-05-10T06:58:32.623Z,1.30
2023-05-10T06:59:34.316Z,1.42
2023-05-10T07:00:35.916Z,1.55
2023-05-10T07:01:37.527Z,1.55
2023-05-10T07:02:39.520Z,2.53
2023-05-10T07:03:43.642Z,3.03
2023-05-10T07:04:45.147Z,2.70
2023-05-10T07:05:46.781Z,3.08
2023-05-10T07:06:48.325Z,1.63
2023-05-10T07:07:50.080Z,1.52
2023-05-10T07:08:51.578Z,4.70
2023-05-10T07:09:53.117Z,4.93
2023-05-10T07:11:07.300Z,3.65
2023-05-10T07:12:11.120Z,5.53
2023-05-10T07:13:13.822Z,4.93
2023-05-10T07:14:15.685Z,3.75
2023-05-10T07:15:17.739Z,3.15
2023-05-10T07:16:19.598Z,2.35
2023-05-10T07:17:21.338Z,2.05
2023-05-10T07:18:23.067Z,1.70
2023-05-10T07:19:25.278Z,2.20
2023-05-10T07:20:26.916Z,2.50
2023-05-10T07:21:29.978Z,1.50
2023-05-10T07:22:31.636Z,1.73
2023-05-10T07:23:33.112Z,1.33
2023-05-10T07:24:34.987Z,1.20
2023-05-10T07:25:36.737Z,1.20
2023-05-10T07:26:38.562Z,1.48
2023-05-10T07:27:40.414Z,1.20
2023-05-10T07:28:42.020Z,1.02
2023-05-10T07:29:43.477Z,1.02
2023-05-10T07:30:45.290Z,1.30
2023-05-10T07:31:47.111Z,1.30
2023-05-10T07:32:48.655Z,1.20
2023-05-10T07:33:50.134Z,1.02
2023-05-10T07:34:51.587Z,1.10
2023-05-10T07:35:53.048Z,0.85
2023-05-10T07:36:54.718Z,1.20
2023-05-10T07:37:56.308Z,1.10
2023-05-10T07:38:58.586Z,0.88
2023-05-10T07:40:00.247Z,1.00
2023-05-10T07:41:02.057Z,1.17
2023-05-10T07:42:04.425Z,1.10
2023-05-10T07:43:06.342Z,1.10
2023-05-10T07:44:07.827Z,1.00
2023-05-10T07:45:12.326Z,1.30
2023-05-10T07:46:16.954Z,0.90
2023-05-10T07:47:18.424Z,1.05
2023-05-10T07:48:19.932Z,1.20
2023-05-10T07:49:21.414Z,1.00
2023-05-10T07:50:25.170Z,1.23
2023-05-10T07:51:27.564Z,1.10
2023-05-10T07:52:29.044Z,1.00
2023-05-10T07:53:33.077Z,1.10
2023-05-10T07:54:34.894Z,1.10
2023-05-10T07:55:36.451Z,1.20
2023-05-10T07:56:37.941Z,1.00
2023-05-10T07:57:39.811Z,1.00
2023-05-10T07:58:43.507Z,1.02
2023-05-10T07:59:45.811Z,1.17
2023-05-10T08:00:50.416Z,0.90
2023-05-10T08:01:51.856Z,1.10
2023-05-10T08:02:53.988Z,1.35
2023-05-10T08:03:55.991Z,1.10
2023-05-10T08:04:58.029Z,1.17
2023-05-10T08:06:04.026Z,1.20
2023-05-10T08:07:07.861Z,1.10
2023-05-10T08:08:10.741Z,1.17
2023-05-10T08:10:13.731Z,1.45
2023-05-10T08:11:15.206Z,1.58
2023-05-10T08:12:19.028Z,1.50
2023-05-10T08:13:22.199Z,1.30
2023-05-10T08:14:23.794Z,1.55
2023-05-10T08:15:26.639Z,1.55
2023-05-10T08:16:28.639Z,1.30
2023-05-10T08:17:30.273Z,1.40
2023-05-10T08:18:31.748Z,1.35
2023-05-10T08:19:33.299Z,1.42
2023-05-10T08:20:34.779Z,1.40
2023-05-10T08:21:37.038Z,1.50
2023-05-10T08:22:38.575Z,1.73
2023-05-10T08:23:43.123Z,1.98
2023-05-10T08:24:47.529Z,1.50
2023-05-10T08:25:51.812Z,1.63
2023-05-10T08:26:56.018Z,1.60
2023-05-10T08:27:57.663Z,1.90
2023-05-10T08:29:01.868Z,1.60
2023-05-10T08:30:03.737Z,1.58
2023-05-10T08:31:06.137Z,1.60
2023-05-10T08:32:07.916Z,1.40
2023-05-10T08:33:09.517Z,1.60
2023-05-10T08:34:11.161Z,1.48
2023-05-10T08:35:12.608Z,1.50
2023-05-10T08:36:16.863Z,1.50
2023-05-10T08:37:18.414Z,1.50
2023-05-10T08:38:22.809Z,1.60
2023-05-10T08:39:30.269Z,1.38
2023-05-10T08:40:37.648Z,1.50
2023-05-10T08:41:43.378Z,1.50
2023-05-10T08:42:56.470Z,1.30
2023-05-10T08:43:59.308Z,1.40
2023-05-10T08:45:01.471Z,1.30
2023-05-10T08:46:06.613Z,1.33
2023-05-10T08:47:10.113Z,1.40
2023-05-10T08:48:12.250Z,1.48
2023-05-10T08:49:23.024Z,1.30
2023-05-10T08:50:26.299Z,1.42
2023-05-10T08:51:29.975Z,1.42
2023-05-10T08:52:34.001Z,1.60
2023-05-10T08:53:37.917Z,1.60
2023-05-10T08:54:39.693Z,1.52
2023-05-10T08:55:43.472Z,1.48
2023-05-10T08:56:46.139Z,1.45
2023-05-10T08:57:52.705Z,1.23
2023-05-10T08:58:54.434Z,1.45
2023-05-10T08:59:56.039Z,1.48
2023-05-10T09:00:59.579Z,1.40
2023-05-10T09:02:05.594Z,1.58
2023-05-10T09:03:07.411Z,1.52
2023-05-10T09:04:08.938Z,1.65
2023-05-10T09:05:13.314Z,1.40
2023-05-10T09:06:15.392Z,1.40
2023-05-10T09:07:17.670Z,1.40
2023-05-10T09:08:19.438Z,1.30
2023-05-10T09:09:21.637Z,1.48
2023-05-10T09:10:26.991Z,1.52
2023-05-10T09:11:30.486Z,2.13
2023-05-10T09:12:34.760Z,1.60
2023-05-10T09:13:39.064Z,3.00
2023-05-10T09:14:42.930Z,2.55
2023-05-10T09:15:48.141Z,1.90
2023-05-10T09:16:54.930Z,1.80
2023-05-10T09:17:57.229Z,1.50
2023-05-10T09:18:58.866Z,1.73
2023-05-10T09:20:01.649Z,1.75
2023-05-10T09:21:03.129Z,1.48
2023-05-10T09:22:05.051Z,1.70
2023-05-10T09:23:06.902Z,1.63
2023-05-10T09:24:09.454Z,1.48
2023-05-10T09:25:17.724Z,1.63
2023-05-10T09:26:25.879Z,1.77
2023-05-10T09:27:29.903Z,1.60
2023-05-10T09:28:59.595Z,1.45
2023-05-10T09:30:01.557Z,1.50
2023-05-10T09:31:03.505Z,1.50
2023-05-10T09:32:05.101Z,1.40
2023-05-10T09:33:06.738Z,1.40
2023-05-10T09:34:08.264Z,1.60
2023-05-10T09:35:13.070Z,1.38
2023-05-10T09:36:15.391Z,1.40
2023-05-10T09:37:16.920Z,1.48
2023-05-10T09:38:18.557Z,1.48
2023-05-10T09:39:20.536Z,1.40
2023-05-10T09:40:24.389Z,1.70
2023-05-10T09:41:28.982Z,1.50
2023-05-10T09:42:33.317Z,1.55
2023-05-10T09:43:39.379Z,1.23
2023-05-10T09:44:41.963Z,1.20
2023-05-10T09:45:49.945Z,1.27
2023-05-10T09:46:54.380Z,1.63
2023-05-10T09:48:00.045Z,1.20
2023-05-10T09:49:02.139Z,1.30
2023-05-10T09:50:06.316Z,1.35
2023-05-10T09:51:07.905Z,1.20
2023-05-10T09:52:09.398Z,1.30
2023-05-10T09:53:16.295Z,1.33
2023-05-10T09:54:20.136Z,1.13
2023-05-10T09:55:24.383Z,1.27
2023-05-10T09:56:40.758Z,1.10
2023-05-10T09:57:42.570Z,1.33
2023-05-10T09:58:44.086Z,1.00
2023-05-10T09:59:48.601Z,2.20
2023-05-10T10:00:52.595Z,2.13
2023-05-10T10:02:00.536Z,1.60
2023-05-10T10:03:05.646Z,1.73
2023-05-10T10:04:12.760Z,1.20
2023-05-10T10:05:17.690Z,1.15
2023-05-10T10:06:29.487Z,1.20
2023-05-10T10:07:32.974Z,1.25
2023-05-10T10:08:35.115Z,1.10
2023-05-10T10:09:36.673Z,1.10
2023-05-10T10:10:39.761Z,1.23
2023-05-10T10:11:44.672Z,1.20
2023-05-10T10:12:46.256Z,1.30
2023-05-10T10:13:50.812Z,1.00
2023-05-10T10:14:53.083Z,1.20
2023-05-10T10:15:55.754Z,1.20
2023-05-10T10:17:07.712Z,1.15
2023-05-10T10:18:14.530Z,1.10
2023-05-10T10:19:16.526Z,1.10
2023-05-10T10:20:23.179Z,0.98
2023-05-10T10:21:25.114Z,0.98
2023-05-10T10:22:29.882Z,1.17
2023-05-10T10:23:31.791Z,1.10
2023-05-10T10:24:33.407Z,1.25
2023-05-10T10:25:35.263Z,1.30
2023-05-10T10:26:40.152Z,1.10
2023-05-10T10:27:51.932Z,1.10
2023-05-10T10:29:12.326Z,1.00
2023-05-10T10:30:44.211Z,1.15
2023-05-10T10:32:23.210Z,1.02
2023-05-10T10:33:28.708Z,0.90
2023-05-10T10:34:31.921Z,1.05
2023-05-10T10:35:35.259Z,1.15
2023-05-10T10:36:48.035Z,1.20
2023-05-10T10:37:51.777Z,1.13
2023-05-10T10:38:54.158Z,1.17
2023-05-10T10:39:57.445Z,1.30
2023-05-10T10:41:04.389Z,1.17
2023-05-10T10:42:06.604Z,1.10
2023-05-10T10:43:29.204Z,1.33
2023-05-10T10:44:40.211Z,1.27
2023-05-10T10:45:42.350Z,1.20
2023-05-10T10:47:25.996Z,1.48
2023-05-10T10:48:27.609Z,1.20
2023-05-10T10:49:33.263Z,4.13
2023-05-10T10:50:50.909Z,7.70
2023-05-10T10:52:34.574Z,10.02
2023-05-10T10:53:40.072Z,4.15
2023-05-10T10:54:42.853Z,2.00
2023-05-10T10:55:49.054Z,1.60
2023-05-10T10:57:19.466Z,1.38
2023-05-10T10:58:34.421Z,1.10
2023-05-10T10:59:35.871Z,1.20
2023-05-10T11:00:40.921Z,1.02
2023-05-10T11:01:45.247Z,1.10
2023-05-10T11:02:52.816Z,1.27
2023-05-10T11:04:06.733Z,1.20
2023-05-10T11:05:37.859Z,1.27
2023-05-10T11:06:41.196Z,1.40
2023-05-10T11:07:59.054Z,1.60
2023-05-10T11:09:10.786Z,1.40
2023-05-10T11:10:12.413Z,1.23
2023-05-10T11:11:17.647Z,1.30
2023-05-10T11:12:21.784Z,1.25
2023-05-10T11:13:53.943Z,1.50
2023-05-10T11:14:58.531Z,1.73
2023-05-10T11:16:11.645Z,2.33
2023-05-10T11:17:28.122Z,2.10
2023-05-10T11:18:31.459Z,2.30
2023-05-10T11:19:33.043Z,1.90
2023-05-10T11:20:40.964Z,1.90
2023-05-10T11:22:07.137Z,1.65
2023-05-10T11:23:19.642Z,1.45
2023-05-10T11:24:28.598Z,1.33
2023-05-10T11:26:33.479Z,1.67
2023-05-10T11:27:38.857Z,1.60
2023-05-10T11:28:49.270Z,1.83
2023-05-10T11:29:53.568Z,1.60
2023-05-10T11:30:57.195Z,1.67
2023-05-10T11:32:00.174Z,1.60
2023-05-10T11:33:01.853Z,2.15
2023-05-10T11:34:07.656Z,1.88
2023-05-10T11:35:11.761Z,2.50
2023-05-10T11:36:22.161Z,1.80
2023-05-10T11:37:23.745Z,1.70
2023-05-10T11:38:25.263Z,1.88
2023-05-10T11:39:33.215Z,1.60
2023-05-10T11:40:35.785Z,1.50
2023-05-10T11:41:41.636Z,1.50
2023-05-10T11:42:45.178Z,1.63
2023-05-10T11:43:54.635Z,1.83
2023-05-10T11:44:56.552Z,1.88
2023-05-10T11:46:00.374Z,1.60
2023-05-10T11:47:05.132Z,1.60
2023-05-10T11:48:12.584Z,1.42
2023-05-10T11:49:14.535Z,1.55
2023-05-10T11:50:16.380Z,1.50
2023-05-10T11:51:27.013Z,1.40
2023-05-10T11:52:31.481Z,1.42
2023-05-10T11:53:34.026Z,1.38
2023-05-10T11:54:39.093Z,1.50
2023-05-10T11:55:43.127Z,1.30
2023-05-10T11:56:45.827Z,1.20
2023-05-10T11:57:47.694Z,1.45
2023-05-10T11:58:58.453Z,1.38
2023-05-10T12:00:00.093Z,1.30
2023-05-10T12:01:05.556Z,1.50
2023-05-10T12:02:07.225Z,1.20
2023-05-10T12:03:11.669Z,1.40
2023-05-10T12:04:13.438Z,1.33
2023-05-10T12:05:15.542Z,1.25
2023-05-10T12:06:19.771Z,1.17
2023-05-10T12:07:21.357Z,1.55
2023-05-10T12:08:26.828Z,1.15
2023-05-10T12:09:42.567Z,1.60
2023-05-10T12:10:46.038Z,1.42
2023-05-10T12:11:47.475Z,1.20
2023-05-10T12:12:49.187Z,1.20
2023-05-10T12:13:51.260Z,1.20
2023-05-10T12:14:55.105Z,1.17
2023-05-10T12:16:03.436Z,1.30
2023-05-10T12:17:04.956Z,1.20
2023-05-10T12:18:10.057Z,1.20
2023-05-10T12:19:11.920Z,1.17
2023-05-10T12:20:25.095Z,1.40
2023-05-10T12:21:28.014Z,1.23
2023-05-10T12:23:31.516Z,5.13
2023-05-10T12:24:37.559Z,3.70
2023-05-10T12:25:40.158Z,3.03
2023-05-10T12:26:41.717Z,3.00
2023-05-10T12:27:56.860Z,2.55
2023-05-10T12:30:23.011Z,1.70
2023-05-10T12:31:24.843Z,1.60
2023-05-10T12:32:44.832Z,1.55
2023-05-10T12:33:50.284Z,1.30
2023-05-10T12:34:54.382Z,1.30
2023-05-10T12:35:57.333Z,1.30
2023-05-10T12:36:59.622Z,1.30
2023-05-10T12:38:01.136Z,1.48
2023-05-10T12:39:09.189Z,1.50
2023-05-10T12:40:14.401Z,1.30
2023-05-10T12:41:19.256Z,1.25
2023-05-10T12:42:21.092Z,1.27
2023-05-10T12:43:22.794Z,1.10
2023-05-10T12:44:26.474Z,1.40
2023-05-10T12:45:31.193Z,1.40
2023-05-10T12:46:35.503Z,1.40
2023-05-10T12:47:37.262Z,1.30
2023-05-10T12:48:42.176Z,1.38
2023-05-10T12:49:46.461Z,1.27
2023-05-10T12:50:48.620Z,1.10
2023-05-10T12:51:50.127Z,1.30
2023-05-10T12:52:51.739Z,1.50
2023-05-10T12:53:56.534Z,1.60
2023-05-10T12:55:01.675Z,1.20
2023-05-10T12:56:05.821Z,1.30
2023-05-10T12:57:07.320Z,1.27
2023-05-10T12:58:15.727Z,1.73
2023-05-10T12:59:23.815Z,1.70
2023-05-10T13:01:26.916Z,1.70
2023-05-10T13:02:28.459Z,1.90
2023-05-10T13:03:32.883Z,1.60
2023-05-10T13:04:35.508Z,1.70
2023-05-10T13:05:40.021Z,1.73
2023-05-10T13:06:41.533Z,1.55
2023-05-10T13:07:44.825Z,1.70
2023-05-10T13:08:46.855Z,1.90
2023-05-10T13:09:48.456Z,1.65
2023-05-10T13:10:50.406Z,1.50
2023-05-10T13:11:54.416Z,1.38
2023-05-10T13:12:56.132Z,1.52
2023-05-10T13:14:00.457Z,1.50
2023-05-10T13:15:03.576Z,1.50
2023-05-10T13:16:05.781Z,1.45
2023-05-10T13:17:10.238Z,1.30
2023-05-10T13:18:12.000Z,1.48
2023-05-10T13:19:16.253Z,1.40
2023-05-10T13:20:20.508Z,1.30
2023-05-10T13:21:26.487Z,1.40
2023-05-10T13:22:39.895Z,1.30
2023-05-10T13:23:42.267Z,1.35
2023-05-10T13:24:46.327Z,1.52
2023-05-10T13:25:48.007Z,1.40
2023-05-10T13:26:50.640Z,1.60
2023-05-10T13:27:52.106Z,1.20
2023-05-10T13:28:55.015Z,1.30
2023-05-10T13:31:02.931Z,1.40
2023-05-10T13:32:04.714Z,1.38
2023-05-10T13:33:06.389Z,1.60
2023-05-10T13:34:07.968Z,1.50
2023-05-10T13:35:09.826Z,1.58
2023-05-10T13:36:11.790Z,1.40
2023-05-10T13:37:16.338Z,1.42
2023-05-10T13:38:19.444Z,1.40
2023-05-10T13:39:21.884Z,1.75
2023-05-10T13:40:23.388Z,4.57
2023-05-10T13:41:25.253Z,4.13
2023-05-10T13:42:28.097Z,2.95
2023-05-10T13:44:34.799Z,4.47
2023-05-10T13:45:37.309Z,3.20
2023-05-10T13:46:44.517Z,1.65
2023-05-10T13:47:49.023Z,1.73
2023-05-10T13:48:53.836Z,1.50
2023-05-10T13:49:55.593Z,1.42
2023-05-10T13:50:57.142Z,1.33
2023-05-10T13:51:58.734Z,1.40
2023-05-10T13:53:00.672Z,1.42
2023-05-10T13:54:05.393Z,1.40
2023-05-10T13:55:07.388Z,1.27
2023-05-10T13:56:08.839Z,1.38
2023-05-10T13:57:11.600Z,1.42
2023-05-10T13:58:13.062Z,1.50
2023-05-10T13:59:15.267Z,1.35
2023-05-10T14:00:17.564Z,1.30
2023-05-10T14:01:19.217Z,1.60
2023-05-10T14:02:24.242Z,1.60
2023-05-10T14:03:29.115Z,1.48
2023-05-10T14:04:31.475Z,1.52
2023-05-10T14:05:33.492Z,1.70
2023-05-10T14:06:35.227Z,1.50
2023-05-10T14:07:36.751Z,1.50
2023-05-10T14:08:39.656Z,1.70
2023-05-10T14:10:42.784Z,1.70
2023-05-10T14:11:45.969Z,1.42
2023-05-10T14:12:50.733Z,1.55
2023-05-10T14:13:52.387Z,1.70
2023-05-10T14:14:54.001Z,1.65
2023-05-10T14:15:58.361Z,1.70
2023-05-10T14:17:00.375Z,1.80
2023-05-10T14:18:02.075Z,1.80
2023-05-10T14:19:06.158Z,1.80
2023-05-10T14:20:11.631Z,8.38
2023-05-10T14:21:13.598Z,8.23
2023-05-10T14:22:18.354Z,5.65
2023-05-10T14:23:26.376Z,5.22
2023-05-10T14:24:30.997Z,3.30
2023-05-10T14:25:32.951Z,2.13
2023-05-10T14:26:37.703Z,2.05
2023-05-10T14:27:41.700Z,1.90